sensor_id;sensor_type;location;lat;lon;timestamp;pressure;altitude;pressure_sealevel;temperature;humidity
48077;BME280;33854;57.708;12.008;2023-04-29T00:01:59;100906.97;;;6.57;100.00
48077;BME280;33854;57.708;12.008;2023-04-29T00:04:25;100906.13;;;6.56;100.00
48077;BME280;33854;57.708;12.008;2023-04-29T00:06:50;100908.56;;;6.61;100.00
48077;BME280;33854;57.708;12.008;2023-04-29T00:09:16;100901.50;;;6.66;100.00
48077;BME280;33854;57.708;12.008;2023-04-29T00:11:41;100901.56;;;6.64;100.00
48077;BME280;33854;57.708;12.008;2023-04-29T00:14:07;100892.22;;;6.57;100.00
48077;BME280;33854;57.708;12.008;2023-04-29T00:16:32;100903.53;;;6.56;100.00
48077;BME280;33854;57.708;12.008;2023-04-29T00:18:58;100900.22;;;6.51;100.00
48077;BME280;33854;57.708;12.008;2023-04-29T00:21:24;100889.91;;;6.48;100.00
48077;BME280;33854;57.708;12.008;2023-04-29T00:23:51;100890.72;;;6.50;100.00
48077;BME280;33854;57.708;12.008;2023-04-29T00:26:17;100889.78;;;6.53;100.00
48077;BME280;33854;57.708;12.008;2023-04-29T00:28:43;100892.34;;;6.54;100.00
48077;BME280;33854;57.708;12.008;2023-04-29T00:31:08;100883.66;;;6.55;100.00
48077;BME280;33854;57.708;12.008;2023-04-29T00:33:34;100887.03;;;6.59;100.00
48077;BME280;33854;57.708;12.008;2023-04-29T00:35:59;100884.44;;;6.57;100.00
48077;BME280;33854;57.708;12.008;2023-04-29T00:38:26;100893.16;;;6.56;100.00
48077;BME280;33854;57.708;12.008;2023-04-29T00:40:51;100887.25;;;6.51;100.00
48077;BME280;33854;57.708;12.008;2023-04-29T00:43:17;100882.16;;;6.47;100.00
48077;BME280;33854;57.708;12.008;2023-04-29T00:45:42;100887.47;;;6.42;100.00
48077;BME280;33854;57.708;12.008;2023-04-29T00:48:08;100877.28;;;6.36;100.00
48077;BME280;33854;57.708;12.008;2023-04-29T00:50:34;100873.03;;;6.32;100.00
48077;BME280;33854;57.708;12.008;2023-04-29T00:53:00;100882.53;;;6.33;100.00
48077;BME280;33854;57.708;12.008;2023-04-29T00:55:27;100878.22;;;6.34;100.00
48077;BME280;33854;57.708;12.008;2023-04-29T00:57:52;100877.34;;;6.33;100.00
48077;BME280;33854;57.708;12.008;2023-04-29T01:00:18;100879.00;;;6.36;100.00
48077;BME280;33854;57.708;12.008;2023-04-29T01:02:45;100878.22;;;6.34;100.00
48077;BME280;33854;57.708;12.008;2023-04-29T01:05:10;100869.66;;;6.30;100.00
48077;BME280;33854;57.708;12.008;2023-04-29T01:10:52;100875.78;;;6.27;100.00
48077;BME280;33854;57.708;12.008;2023-04-29T01:13:42;100867.28;;;6.21;100.00
48077;BME280;33854;57.708;12.008;2023-04-29T01:16:24;100874.25;;;6.19;100.00
48077;BME280;33854;57.708;12.008;2023-04-29T01:19:01;100872.59;;;6.16;100.00
48077;BME280;33854;57.708;12.008;2023-04-29T01:21:26;100861.41;;;6.14;100.00
48077;BME280;33854;57.708;12.008;2023-04-29T01:23:52;100861.50;;;6.11;100.00
48077;BME280;33854;57.708;12.008;2023-04-29T01:26:23;100859.88;;;6.07;100.00
48077;BME280;33854;57.708;12.008;2023-04-29T01:29:18;100853.13;;;6.00;100.00
48077;BME280;33854;57.708;12.008;2023-04-29T01:31:57;100855.94;;;5.93;100.00
48077;BME280;33854;57.708;12.008;2023-04-29T01:39:40;100851.81;;;5.84;100.00
48077;BME280;33854;57.708;12.008;2023-04-29T01:42:18;100835.56;;;5.78;100.00
48077;BME280;33854;57.708;12.008;2023-04-29T01:44:48;100850.16;;;5.80;100.00
48077;BME280;33854;57.708;12.008;2023-04-29T01:47:15;100847.66;;;5.77;100.00
48077;BME280;33854;57.708;12.008;2023-04-29T01:49:41;100848.56;;;5.74;100.00
48077;BME280;33854;57.708;12.008;2023-04-29T01:52:07;100845.25;;;5.69;100.00
48077;BME280;33854;57.708;12.008;2023-04-29T01:54:32;100846.13;;;5.70;100.00
48077;BME280;33854;57.708;12.008;2023-04-29T01:57:01;100846.13;;;5.70;100.00
48077;BME280;33854;57.708;12.008;2023-04-29T01:59:27;100836.63;;;5.69;100.00
48077;BME280;33854;57.708;12.008;2023-04-29T02:01:53;100843.44;;;5.73;100.00
48077;BME280;33854;57.708;12.008;2023-04-29T02:04:20;100834.88;;;5.71;100.00
48077;BME280;33854;57.708;12.008;2023-04-29T02:06:46;100833.97;;;5.72;100.00
48077;BME280;33854;57.708;12.008;2023-04-29T02:09:11;100832.38;;;5.68;100.00
48077;BME280;33854;57.708;12.008;2023-04-29T02:11:36;100841.94;;;5.64;100.00
48077;BME280;33854;57.708;12.008;2023-04-29T02:14:02;100834.25;;;5.61;100.00
48077;BME280;33854;57.708;12.008;2023-04-29T02:16:27;100830.84;;;5.59;100.00
48077;BME280;33854;57.708;12.008;2023-04-29T02:18:53;100830.00;;;5.59;100.00
48077;BME280;33854;57.708;12.008;2023-04-29T02:21:18;100830.00;;;5.57;100.00
48077;BME280;33854;57.708;12.008;2023-04-29T02:23:43;100829.34;;;5.51;100.00
48077;BME280;33854;57.708;12.008;2023-04-29T02:26:09;100828.53;;;5.47;100.00
48077;BME280;33854;57.708;12.008;2023-04-29T02:28:35;100826.75;;;5.49;100.00
48077;BME280;33854;57.708;12.008;2023-04-29T02:31:00;100823.28;;;5.50;100.00
48077;BME280;33854;57.708;12.008;2023-04-29T02:33:26;100824.09;;;5.52;100.00
48077;BME280;33854;57.708;12.008;2023-04-29T02:35:51;100818.94;;;5.52;100.00
48077;BME280;33854;57.708;12.008;2023-04-29T02:38:16;100814.47;;;5.59;100.00
48077;BME280;33854;57.708;12.008;2023-04-29T02:40:44;100815.25;;;5.61;100.00
48077;BME280;33854;57.708;12.008;2023-04-29T02:43:10;100809.22;;;5.62;100.00
48077;BME280;33854;57.708;12.008;2023-04-29T02:45:36;100805.75;;;5.61;100.00
48077;BME280;33854;57.708;12.008;2023-04-29T02:48:03;100803.25;;;5.58;100.00
48077;BME280;33854;57.708;12.008;2023-04-29T02:50:28;100798.16;;;5.55;100.00
48077;BME280;33854;57.708;12.008;2023-04-29T02:52:53;100787.16;;;5.46;100.00
48077;BME280;33854;57.708;12.008;2023-04-29T02:55:19;100806.03;;;5.51;100.00
48077;BME280;33854;57.708;12.008;2023-04-29T02:57:44;100796.56;;;5.50;100.00
48077;BME280;33854;57.708;12.008;2023-04-29T03:00:10;100800.84;;;5.51;100.00
48077;BME280;33854;57.708;12.008;2023-04-29T03:02:36;100792.25;;;5.49;100.00
48077;BME280;33854;57.708;12.008;2023-04-29T03:05:02;100793.03;;;5.52;100.00
48077;BME280;33854;57.708;12.008;2023-04-29T03:07:27;100799.06;;;5.53;100.00
48077;BME280;33854;57.708;12.008;2023-04-29T03:09:54;100795.63;;;5.52;100.00
48077;BME280;33854;57.708;12.008;2023-04-29T03:12:20;100794.81;;;5.50;100.00
48077;BME280;33854;57.708;12.008;2023-04-29T03:14:45;100800.03;;;5.49;100.00
48077;BME280;33854;57.708;12.008;2023-04-29T03:17:11;100786.13;;;5.53;100.00
48077;BME280;33854;57.708;12.008;2023-04-29T03:19:37;100791.31;;;5.51;100.00
48077;BME280;33854;57.708;12.008;2023-04-29T03:22:02;100786.22;;;5.48;100.00
48077;BME280;33854;57.708;12.008;2023-04-29T03:24:28;100777.66;;;5.46;100.00
48077;BME280;33854;57.708;12.008;2023-04-29T03:26:53;100780.97;;;5.51;100.00
48077;BME280;33854;57.708;12.008;2023-04-29T03:29:19;100778.28;;;5.56;100.00
48077;BME280;33854;57.708;12.008;2023-04-29T03:31:45;100781.69;;;5.58;100.00
48077;BME280;33854;57.708;12.008;2023-04-29T03:34:10;100784.25;;;5.59;100.00
48077;BME280;33854;57.708;12.008;2023-04-29T03:36:36;100779.16;;;5.55;100.00
48077;BME280;33854;57.708;12.008;2023-04-29T03:39:01;100764.72;;;5.46;100.00
48077;BME280;33854;57.708;12.008;2023-04-29T03:41:27;100780.88;;;5.56;100.00
48077;BME280;33854;57.708;12.008;2023-04-29T03:43:52;100784.25;;;5.59;100.00
48077;BME280;33854;57.708;12.008;2023-04-29T03:46:19;100777.31;;;5.60;100.00
48077;BME280;33854;57.708;12.008;2023-04-29T03:48:44;100772.91;;;5.63;100.00
48077;BME280;33854;57.708;12.008;2023-04-29T03:51:10;100760.19;;;5.54;100.00
48077;BME280;33854;57.708;12.008;2023-04-29T03:53:35;100766.88;;;5.63;100.00
48077;BME280;33854;57.708;12.008;2023-04-29T03:56:01;100763.34;;;5.65;100.00
48077;BME280;33854;57.708;12.008;2023-04-29T03:58:27;100758.16;;;5.67;100.00
48077;BME280;33854;57.708;12.008;2023-04-29T04:00:53;100742.75;;;5.62;100.00
48077;BME280;33854;57.708;12.008;2023-04-29T04:03:19;100748.69;;;5.66;100.00
48077;BME280;33854;57.708;12.008;2023-04-29T04:05:44;100756.13;;;5.78;100.00
48077;BME280;33854;57.708;12.008;2023-04-29T04:08:10;100760.47;;;5.78;100.00
48077;BME280;33854;57.708;12.008;2023-04-29T04:10:35;100745.69;;;5.81;100.00
48077;BME280;33854;57.708;12.008;2023-04-29T04:13:01;100752.53;;;5.85;100.00
48077;BME280;33854;57.708;12.008;2023-04-29T04:15:26;100743.88;;;5.86;100.00
48077;BME280;33854;57.708;12.008;2023-04-29T04:17:51;100760.09;;;5.93;100.00
48077;BME280;33854;57.708;12.008;2023-04-29T04:20:17;100749.81;;;5.90;100.00
48077;BME280;33854;57.708;12.008;2023-04-29T04:22:42;100748.19;;;5.86;100.00
48077;BME280;33854;57.708;12.008;2023-04-29T04:25:08;100754.16;;;5.89;100.00
48077;BME280;33854;57.708;12.008;2023-04-29T04:27:34;100744.59;;;5.91;100.00
48077;BME280;33854;57.708;12.008;2023-04-29T04:29:59;100742.75;;;5.95;100.00
48077;BME280;33854;57.708;12.008;2023-04-29T04:32:25;100740.06;;;5.99;100.00
48077;BME280;33854;57.708;12.008;2023-04-29T04:34:50;100733.03;;;6.03;100.00
48077;BME280;33854;57.708;12.008;2023-04-29T04:37:16;100734.66;;;6.07;100.00
48077;BME280;33854;57.708;12.008;2023-04-29T04:39:42;100731.84;;;6.14;100.00
48077;BME280;33854;57.708;12.008;2023-04-29T04:42:07;100732.53;;;6.21;100.00
48077;BME280;33854;57.708;12.008;2023-04-29T04:44:33;100728.22;;;6.21;100.00
48077;BME280;33854;57.708;12.008;2023-04-29T04:46:58;100728.94;;;6.26;100.00
48077;BME280;33854;57.708;12.008;2023-04-29T04:49:26;100725.19;;;6.37;100.00
48077;BME280;33854;57.708;12.008;2023-04-29T04:51:52;100725.13;;;6.38;100.00
48077;BME280;33854;57.708;12.008;2023-04-29T04:54:19;100730.28;;;6.40;100.00
48077;BME280;33854;57.708;12.008;2023-04-29T04:56:45;100728.50;;;6.42;100.00
48077;BME280;33854;57.708;12.008;2023-04-29T04:59:12;100729.44;;;6.39;100.00
48077;BME280;33854;57.708;12.008;2023-04-29T05:01:38;100729.38;;;6.41;100.00
48077;BME280;33854;57.708;12.008;2023-04-29T05:04:03;100728.31;;;6.48;100.00
48077;BME280;33854;57.708;12.008;2023-04-29T05:06:29;100727.31;;;6.52;100.00
48077;BME280;33854;57.708;12.008;2023-04-29T05:08:54;100722.91;;;6.55;100.00
48077;BME280;33854;57.708;12.008;2023-04-29T05:11:20;100720.19;;;6.60;100.00
48077;BME280;33854;57.708;12.008;2023-04-29T05:13:47;100711.47;;;6.62;100.00
48077;BME280;33854;57.708;12.008;2023-04-29T05:16:13;100704.56;;;6.61;100.00
48077;BME280;33854;57.708;12.008;2023-04-29T05:18:38;100711.41;;;6.64;100.00
48077;BME280;33854;57.708;12.008;2023-04-29T05:21:04;100700.00;;;6.69;100.00
48077;BME280;33854;57.708;12.008;2023-04-29T05:23:30;100702.28;;;6.80;100.00
48077;BME280;33854;57.708;12.008;2023-04-29T05:25:55;100703.00;;;6.83;100.00
48077;BME280;33854;57.708;12.008;2023-04-29T05:28:21;100696.97;;;6.83;100.00
48077;BME280;33854;57.708;12.008;2023-04-29T05:30:49;100699.63;;;6.81;100.00
48077;BME280;33854;57.708;12.008;2023-04-29T05:33:15;100693.72;;;6.76;100.00
48077;BME280;33854;57.708;12.008;2023-04-29T05:35:41;100687.72;;;6.74;100.00
48077;BME280;33854;57.708;12.008;2023-04-29T05:38:06;100702.22;;;6.81;100.00
48077;BME280;33854;57.708;12.008;2023-04-29T05:40:32;100690.84;;;6.85;100.00
48077;BME280;33854;57.708;12.008;2023-04-29T05:42:57;100680.47;;;6.85;100.00
48077;BME280;33854;57.708;12.008;2023-04-29T05:45:24;100689.53;;;7.00;100.00
48077;BME280;33854;57.708;12.008;2023-04-29T05:47:49;100688.56;;;7.03;100.00
48077;BME280;33854;57.708;12.008;2023-04-29T05:50:15;100688.59;;;7.01;100.00
48077;BME280;33854;57.708;12.008;2023-04-29T05:52:40;100668.25;;;6.89;100.00
48077;BME280;33854;57.708;12.008;2023-04-29T05:55:06;100683.19;;;7.09;100.00
48077;BME280;33854;57.708;12.008;2023-04-29T05:57:31;100688.31;;;7.10;100.00
48077;BME280;33854;57.708;12.008;2023-04-29T05:59:57;100687.06;;;7.22;100.00
48077;BME280;33854;57.708;12.008;2023-04-29T06:02:24;100686.09;;;7.26;100.00
48077;BME280;33854;57.708;12.008;2023-04-29T06:04:49;100671.09;;;7.34;100.00
48077;BME280;33854;57.708;12.008;2023-04-29T06:07:15;100680.94;;;7.49;100.00
48077;BME280;33854;57.708;12.008;2023-04-29T06:09:41;100679.25;;;7.48;100.00
48077;BME280;33854;57.708;12.008;2023-04-29T06:12:07;100682.53;;;7.53;100.00
48077;BME280;33854;57.708;12.008;2023-04-29T06:14:33;100680.69;;;7.57;100.00
48077;BME280;33854;57.708;12.008;2023-04-29T06:16:58;100677.72;;;7.67;100.00
48077;BME280;33854;57.708;12.008;2023-04-29T06:19:24;100670.78;;;7.68;100.00
48077;BME280;33854;57.708;12.008;2023-04-29T06:21:49;100662.88;;;7.71;100.00
48077;BME280;33854;57.708;12.008;2023-04-29T06:24:15;100667.78;;;7.78;100.00
48077;BME280;33854;57.708;12.008;2023-04-29T06:26:40;100665.75;;;7.86;100.00
48077;BME280;33854;57.708;12.008;2023-04-29T06:29:06;100655.38;;;7.86;100.00
48077;BME280;33854;57.708;12.008;2023-04-29T06:31:31;100659.28;;;7.98;100.00
48077;BME280;33854;57.708;12.008;2023-04-29T06:33:57;100639.34;;;7.98;100.00
48077;BME280;33854;57.708;12.008;2023-04-29T06:36:22;100650.03;;;8.14;100.00
48077;BME280;33854;57.708;12.008;2023-04-29T06:38:48;100648.09;;;8.19;100.00
48077;BME280;33854;57.708;12.008;2023-04-29T06:41:13;100649.09;;;8.40;100.00
48077;BME280;33854;57.708;12.008;2023-04-29T06:43:38;100651.09;;;8.55;100.00
48077;BME280;33854;57.708;12.008;2023-04-29T06:46:05;100646.44;;;8.63;100.00
48077;BME280;33854;57.708;12.008;2023-04-29T06:48:30;100644.72;;;8.62;100.00
48077;BME280;33854;57.708;12.008;2023-04-29T06:50:57;100652.72;;;8.57;100.00
48077;BME280;33854;57.708;12.008;2023-04-29T06:53:23;100652.88;;;8.53;100.00
48077;BME280;33854;57.708;12.008;2023-04-29T06:55:49;100642.94;;;8.41;100.00
48077;BME280;33854;57.708;12.008;2023-04-29T06:58:15;100650.06;;;8.37;100.00
48077;BME280;33854;57.708;12.008;2023-04-29T07:00:45;100634.56;;;8.34;100.00
48077;BME280;33854;57.708;12.008;2023-04-29T07:03:11;100630.25;;;8.33;100.00
48077;BME280;33854;57.708;12.008;2023-04-29T07:05:37;100632.75;;;8.36;100.00
48077;BME280;33854;57.708;12.008;2023-04-29T07:08:05;100616.06;;;8.42;100.00
48077;BME280;33854;57.708;12.008;2023-04-29T07:10:31;100605.50;;;8.46;100.00
48077;BME280;33854;57.708;12.008;2023-04-29T07:12:56;100615.34;;;8.60;100.00
48077;BME280;33854;57.708;12.008;2023-04-29T07:15:22;100617.22;;;8.56;100.00
48077;BME280;33854;57.708;12.008;2023-04-29T07:17:47;100612.78;;;8.80;100.00
48077;BME280;33854;57.708;12.008;2023-04-29T07:20:13;100611.84;;;8.81;100.00
48077;BME280;33854;57.708;12.008;2023-04-29T07:22:38;100604.84;;;8.83;100.00
48077;BME280;33854;57.708;12.008;2023-04-29T07:25:04;100619.50;;;8.86;100.00
48077;BME280;33854;57.708;12.008;2023-04-29T07:27:32;100615.06;;;8.88;100.00
48077;BME280;33854;57.708;12.008;2023-04-29T07:29:59;100621.09;;;8.68;100.00
48077;BME280;33854;57.708;12.008;2023-04-29T07:32:25;100607.78;;;8.54;100.00
48077;BME280;33854;57.708;12.008;2023-04-29T07:34:51;100604.88;;;8.40;100.00
48077;BME280;33854;57.708;12.008;2023-04-29T07:37:17;100598.03;;;8.37;100.00
48077;BME280;33854;57.708;12.008;2023-04-29T07:39:42;100602.41;;;8.37;100.00
48077;BME280;33854;57.708;12.008;2023-04-29T07:42:07;100605.50;;;8.46;100.00
48077;BME280;33854;57.708;12.008;2023-04-29T07:44:33;100603.28;;;8.36;100.00
48077;BME280;33854;57.708;12.008;2023-04-29T07:46:58;100601.53;;;8.36;100.00
48077;BME280;33854;57.708;12.008;2023-04-29T07:49:24;100598.75;;;8.41;100.00
48077;BME280;33854;57.708;12.008;2023-04-29T07:51:50;100595.44;;;8.37;100.00
48077;BME280;33854;57.708;12.008;2023-04-29T07:54:15;100585.69;;;8.42;100.00
48077;BME280;33854;57.708;12.008;2023-04-29T07:56:41;100592.00;;;8.37;100.00
48077;BME280;33854;57.708;12.008;2023-04-29T07:59:07;100598.81;;;8.39;100.00
48077;BME280;33854;57.708;12.008;2023-04-29T08:01:32;100600.81;;;8.33;100.00
48077;BME280;33854;57.708;12.008;2023-04-29T08:03:57;100608.13;;;8.22;100.00
48077;BME280;33854;57.708;12.008;2023-04-29T08:06:23;100595.16;;;8.22;100.00
48077;BME280;33854;57.708;12.008;2023-04-29T08:08:48;100599.56;;;8.20;100.00
48077;BME280;33854;57.708;12.008;2023-04-29T08:11:17;100603.16;;;8.16;100.00
48077;BME280;33854;57.708;12.008;2023-04-29T08:13:43;100609.34;;;8.13;100.00
48077;BME280;33854;57.708;12.008;2023-04-29T08:16:09;100606.06;;;8.08;100.00
48077;BME280;33854;57.708;12.008;2023-04-29T08:18:34;100617.44;;;8.06;100.00
48077;BME280;33854;57.708;12.008;2023-04-29T08:21:01;100612.16;;;8.07;100.00
48077;BME280;33854;57.708;12.008;2023-04-29T08:23:27;100603.41;;;8.10;100.00
48077;BME280;33854;57.708;12.008;2023-04-29T08:25:52;100600.47;;;7.95;100.00
48077;BME280;33854;57.708;12.008;2023-04-29T08:28:20;100584.03;;;7.95;100.00
48077;BME280;33854;57.708;12.008;2023-04-29T08:30:45;100601.94;;;8.02;100.00
48077;BME280;33854;57.708;12.008;2023-04-29T08:33:11;100608.59;;;8.10;100.00
48077;BME280;33854;57.708;12.008;2023-04-29T08:35:37;100622.88;;;8.21;100.00
48077;BME280;33854;57.708;12.008;2023-04-29T08:38:06;100621.59;;;8.33;100.00
48077;BME280;33854;57.708;12.008;2023-04-29T08:40:35;100628.81;;;8.25;100.00
48077;BME280;33854;57.708;12.008;2023-04-29T08:43:05;100614.84;;;8.29;100.00
48077;BME280;33854;57.708;12.008;2023-04-29T08:45:34;100615.50;;;8.34;100.00
48077;BME280;33854;57.708;12.008;2023-04-29T08:48:01;100608.56;;;8.34;100.00
48077;BME280;33854;57.708;12.008;2023-04-29T08:50:29;100605.78;;;8.39;100.00
48077;BME280;33854;57.708;12.008;2023-04-29T08:52:54;100619.56;;;8.18;100.00
48077;BME280;33854;57.708;12.008;2023-04-29T08:55:20;100611.91;;;8.15;100.00
48077;BME280;33854;57.708;12.008;2023-04-29T08:57:47;100625.34;;;8.02;100.00
48077;BME280;33854;57.708;12.008;2023-04-29T09:00:14;100612.25;;;8.06;100.00
48077;BME280;33854;57.708;12.008;2023-04-29T09:02:48;100612.25;;;8.06;100.00
48077;BME280;33854;57.708;12.008;2023-04-29T09:05:15;100611.03;;;8.14;100.00
48077;BME280;33854;57.708;12.008;2023-04-29T09:07:41;100605.34;;;8.04;100.00
48077;BME280;33854;57.708;12.008;2023-04-29T09:10:08;100610.50;;;8.06;100.00
48077;BME280;33854;57.708;12.008;2023-04-29T09:12:34;100616.81;;;7.99;100.00
48077;BME280;33854;57.708;12.008;2023-04-29T09:15:00;100615.38;;;8.14;100.00
48077;BME280;33854;57.708;12.008;2023-04-29T09:17:46;100606.81;;;8.12;100.00
48077;BME280;33854;57.708;12.008;2023-04-29T09:22:50;100614.53;;;8.13;100.00
48077;BME280;33854;57.708;12.008;2023-04-29T09:25:16;100596.13;;;8.19;100.00
48077;BME280;33854;57.708;12.008;2023-04-29T09:27:42;100593.47;;;8.21;100.00
48077;BME280;33854;57.708;12.008;2023-04-29T09:30:07;100604.53;;;8.26;100.00
48077;BME280;33854;57.708;12.008;2023-04-29T09:32:33;100591.75;;;8.20;100.00
48077;BME280;33854;57.708;12.008;2023-04-29T09:35:25;100586.13;;;8.09;100.00
48077;BME280;33854;57.708;12.008;2023-04-29T09:37:51;100588.94;;;8.26;100.00
48077;BME280;33854;57.708;12.008;2023-04-29T09:40:30;100612.91;;;8.34;100.00
48077;BME280;33854;57.708;12.008;2023-04-29T09:42:59;100585.38;;;8.50;100.00
48077;BME280;33854;57.708;12.008;2023-04-29T09:45:35;100588.72;;;8.53;100.00
48077;BME280;33854;57.708;12.008;2023-04-29T09:48:05;100577.09;;;8.62;100.00
48077;BME280;33854;57.708;12.008;2023-04-29T09:50:34;100584.16;;;8.80;100.00
48077;BME280;33854;57.708;12.008;2023-04-29T09:53:04;100589.41;;;9.00;100.00
48077;BME280;33854;57.708;12.008;2023-04-29T09:55:30;100587.75;;;8.78;100.00
48077;BME280;33854;57.708;12.008;2023-04-29T09:57:56;100564.72;;;8.89;100.00
48077;BME280;33854;57.708;12.008;2023-04-29T10:00:21;100575.19;;;8.87;100.00
48077;BME280;33854;57.708;12.008;2023-04-29T10:02:48;100566.00;;;8.99;100.00
48077;BME280;33854;57.708;12.008;2023-04-29T10:05:16;100585.66;;;8.86;100.00
48077;BME280;33854;57.708;12.008;2023-04-29T10:07:41;100579.72;;;9.04;100.00
48077;BME280;33854;57.708;12.008;2023-04-29T10:10:08;100586.72;;;9.02;100.00
48077;BME280;33854;57.708;12.008;2023-04-29T10:12:36;100589.25;;;8.83;100.00
48077;BME280;33854;57.708;12.008;2023-04-29T10:15:04;100579.97;;;9.18;100.00
48077;BME280;33854;57.708;12.008;2023-04-29T10:17:36;100584.06;;;9.24;100.00
48077;BME280;33854;57.708;12.008;2023-04-29T10:20:07;100560.56;;;9.05;100.00
48077;BME280;33854;57.708;12.008;2023-04-29T10:25:00;100573.28;;;9.12;100.00
48077;BME280;33854;57.708;12.008;2023-04-29T10:27:26;100560.94;;;8.96;100.00
48077;BME280;33854;57.708;12.008;2023-04-29T10:29:53;100567.78;;;8.98;100.00
48077;BME280;33854;57.708;12.008;2023-04-29T10:32:20;100562.44;;;9.22;100.00
48077;BME280;33854;57.708;12.008;2023-04-29T10:34:47;100559.31;;;9.13;100.00
48077;BME280;33854;57.708;12.008;2023-04-29T10:37:13;100539.81;;;9.03;100.00
48077;BME280;33854;57.708;12.008;2023-04-29T10:45:25;100567.00;;;9.37;100.00
48077;BME280;33854;57.708;12.008;2023-04-29T10:50:31;100558.03;;;9.62;100.00
48077;BME280;33854;57.708;12.008;2023-04-29T10:52:56;100563.06;;;9.67;100.00
48077;BME280;33854;57.708;12.008;2023-04-29T10:55:23;100538.38;;;9.74;100.00
48077;BME280;33854;57.708;12.008;2023-04-29T10:57:52;100554.38;;;9.66;100.00
48077;BME280;33854;57.708;12.008;2023-04-29T11:00:21;100527.41;;;9.86;100.00
48077;BME280;33854;57.708;12.008;2023-04-29T11:02:48;100539.09;;;9.39;100.00
48077;BME280;33854;57.708;12.008;2023-04-29T11:05:13;100562.84;;;9.12;100.00
48077;BME280;33854;57.708;12.008;2023-04-29T11:07:39;100536.13;;;8.67;100.00
48077;BME280;33854;57.708;12.008;2023-04-29T11:10:06;100572.69;;;8.84;100.00
48077;BME280;33854;57.708;12.008;2023-04-29T11:12:31;100560.22;;;9.71;100.00
48077;BME280;33854;57.708;12.008;2023-04-29T11:14:57;100575.50;;;9.79;100.00
48077;BME280;33854;57.708;12.008;2023-04-29T11:17:38;100554.53;;;10.01;100.00
48077;BME280;33854;57.708;12.008;2023-04-29T11:20:10;100540.81;;;10.52;100.00
48077;BME280;33854;57.708;12.008;2023-04-29T11:22:37;100560.59;;;10.01;100.00
48077;BME280;33854;57.708;12.008;2023-04-29T11:25:05;100577.66;;;9.90;100.00
48077;BME280;33854;57.708;12.008;2023-04-29T11:27:39;100555.38;;;10.39;100.00
48077;BME280;33854;57.708;12.008;2023-04-29T11:30:07;100571.13;;;10.18;100.00
48077;BME280;33854;57.708;12.008;2023-04-29T11:32:36;100564.47;;;10.66;100.00
48077;BME280;33854;57.708;12.008;2023-04-29T11:35:12;100544.97;;;10.73;100.00
48077;BME280;33854;57.708;12.008;2023-04-29T11:37:40;100564.88;;;10.75;100.00
48077;BME280;33854;57.708;12.008;2023-04-29T11:40:06;100572.56;;;10.96;100.00
48077;BME280;33854;57.708;12.008;2023-04-29T11:42:39;100554.09;;;11.16;100.00
48077;BME280;33854;57.708;12.008;2023-04-29T11:45:05;100574.31;;;10.42;100.00
48077;BME280;33854;57.708;12.008;2023-04-29T11:47:31;100574.25;;;9.88;100.00
48077;BME280;33854;57.708;12.008;2023-04-29T11:50:06;100582.41;;;9.80;100.00
48077;BME280;33854;57.708;12.008;2023-04-29T11:52:34;100580.59;;;10.01;100.00
48077;BME280;33854;57.708;12.008;2023-04-29T11:55:01;100568.75;;;10.31;100.00
48077;BME280;33854;57.708;12.008;2023-04-29T11:57:27;100548.91;;;10.99;100.00
48077;BME280;33854;57.708;12.008;2023-04-29T11:59:52;100586.28;;;11.16;100.00
48077;BME280;33854;57.708;12.008;2023-04-29T12:02:28;100602.16;;;9.86;100.00
48077;BME280;33854;57.708;12.008;2023-04-29T12:04:54;100576.94;;;10.23;100.00
48077;BME280;33854;57.708;12.008;2023-04-29T12:07:21;100587.44;;;11.11;100.00
48077;BME280;33854;57.708;12.008;2023-04-29T12:09:46;100585.91;;;10.90;100.00
48077;BME280;33854;57.708;12.008;2023-04-29T12:12:13;100573.22;;;11.16;100.00
48077;BME280;33854;57.708;12.008;2023-04-29T12:14:40;100593.34;;;11.14;100.00
48077;BME280;33854;57.708;12.008;2023-04-29T12:17:07;100579.78;;;10.55;100.00
48077;BME280;33854;57.708;12.008;2023-04-29T12:19:34;100592.00;;;10.54;100.00
48077;BME280;33854;57.708;12.008;2023-04-29T12:22:03;100582.75;;;10.83;100.00
48077;BME280;33854;57.708;12.008;2023-04-29T12:24:35;100601.44;;;11.10;100.00
48077;BME280;33854;57.708;12.008;2023-04-29T12:27:01;100592.22;;;10.50;100.00
48077;BME280;33854;57.708;12.008;2023-04-29T12:29:26;100588.91;;;10.09;100.00
48077;BME280;33854;57.708;12.008;2023-04-29T12:31:52;100600.75;;;10.16;100.00
48077;BME280;33854;57.708;12.008;2023-04-29T12:34:24;100552.28;;;11.01;100.00
48077;BME280;33854;57.708;12.008;2023-04-29T12:36:50;100576.78;;;11.48;100.00
48077;BME280;33854;57.708;12.008;2023-04-29T12:39:16;100586.81;;;11.23;100.00
48077;BME280;33854;57.708;12.008;2023-04-29T12:41:41;100605.88;;;10.55;100.00
48077;BME280;33854;57.708;12.008;2023-04-29T12:44:08;100593.09;;;11.86;100.00
48077;BME280;33854;57.708;12.008;2023-04-29T12:46:38;100589.53;;;12.81;100.00
48077;BME280;33854;57.708;12.008;2023-04-29T12:49:04;100620.16;;;12.02;100.00
48077;BME280;33854;57.708;12.008;2023-04-29T12:51:31;100576.28;;;12.84;100.00
48077;BME280;33854;57.708;12.008;2023-04-29T12:54:03;100584.50;;;13.94;100.00
48077;BME280;33854;57.708;12.008;2023-04-29T12:56:30;100585.50;;;13.35;100.00
48077;BME280;33854;57.708;12.008;2023-04-29T12:58:56;100593.56;;;12.56;100.00